Time;durP1;ratioP1;P1;durP2;ratioP2;P2;SDS_P1;SDS_P2;PMS_P1;PMS_P2;Temp;Humidity;BMP_temperature;BMP_pressure;BME280_temperature;BME280_humidity;BME280_pressure;Samples;Min_cycle;Max_cycle;Signal;HPM_P1;HPM_P2
2022/09/04 00:02:07;;;;;;;14.63;7.10;;;18.00;99.90;;;;;;5021439;28;20041;-59
2022/09/04 00:04:50;;;;;;;17.50;8.32;;;17.90;99.90;;;;;;5022511;28;20089;-58
2022/09/04 00:07:27;;;;;;;19.45;8.18;;;18.00;99.90;;;;;;5037461;28;20033;-58
2022/09/04 00:10:08;;;;;;;16.10;7.50;;;17.90;99.90;;;;;;5021131;28;20281;-58
2022/09/04 00:13:00;;;;;;;15.00;8.23;;;17.90;99.90;;;;;;5018867;28;20053;-56
2022/09/04 00:15:35;;;;;;;12.93;6.78;;;17.90;99.90;;;;;;5036121;28;20052;-58
2022/09/04 00:18:19;;;;;;;11.20;7.72;;;18.00;99.90;;;;;;5005705;28;20053;-58
2022/09/04 00:20:49;;;;;;;14.45;7.00;;;18.00;99.90;;;;;;5006374;28;20026;-59
2022/09/04 00:23:26;;;;;;;11.40;6.57;;;18.00;99.90;;;;;;5037492;28;20076;-58
2022/09/04 00:26:21;;;;;;;17.05;8.90;;;18.00;99.90;;;;;;5021833;28;20029;-59
2022/09/04 00:28:49;;;;;;;12.43;7.32;;;18.00;99.90;;;;;;5028995;28;20032;-59
2022/09/04 00:31:37;;;;;;;14.95;7.45;;;18.10;99.90;;;;;;5005141;28;20038;-59
2022/09/04 00:34:31;;;;;;;14.80;7.60;;;18.10;99.90;;;;;;5005498;28;20042;-60
2022/09/04 00:37:00;;;;;;;14.30;7.18;;;18.10;99.90;;;;;;5023574;28;20026;-57
2022/09/04 00:39:51;;;;;;;27.00;8.88;;;18.00;99.90;;;;;;5004712;28;20030;-58
2022/09/04 00:42:46;;;;;;;10.95;7.40;;;18.00;99.90;;;;;;5006023;28;20061;-59
2022/09/04 00:45:35;;;;;;;11.55;7.28;;;18.00;99.90;;;;;;5037481;28;20056;-58
2022/09/04 00:48:28;;;;;;;12.45;7.22;;;18.00;99.90;;;;;;5025509;28;20034;-58
2022/09/04 00:51:21;;;;;;;9.32;7.30;;;18.00;99.90;;;;;;5035623;28;20030;-58
2022/09/04 00:53:57;;;;;;;16.98;7.60;;;18.00;99.90;;;;;;5014108;28;20033;-58
2022/09/04 00:56:43;;;;;;;11.50;6.85;;;18.00;99.90;;;;;;5018906;28;20056;-59
2022/09/04 00:59:32;;;;;;;11.35;7.63;;;17.90;99.90;;;;;;4670806;28;10000923;-58
2022/09/04 01:02:05;;;;;;;14.90;8.20;;;17.90;99.90;;;;;;5021749;28;20073;-59
2022/09/04 01:04:35;;;;;;;14.82;6.95;;;17.90;99.90;;;;;;5004596;28;20030;-58
2022/09/04 01:07:15;;;;;;;9.07;7.22;;;17.90;99.90;;;;;;5020391;28;20026;-63
2022/09/04 01:09:58;;;;;;;14.40;7.05;;;17.90;99.90;;;;;;5036909;28;20026;-59
2022/09/04 01:12:44;;;;;;;11.30;7.53;;;17.90;99.90;;;;;;5020189;28;20053;-61
2022/09/04 01:15:23;;;;;;;15.68;6.63;;;17.80;99.90;;;;;;5027099;28;20068;-60
2022/09/04 01:18:10;;;;;;;20.02;8.40;;;17.80;99.90;;;;;;5027161;28;20026;-59
2022/09/04 01:20:48;;;;;;;11.93;8.65;;;17.70;99.90;;;;;;5016701;28;20042;-59
2022/09/04 01:23:40;;;;;;;15.55;9.32;;;17.70;99.90;;;;;;5017230;28;20121;-61
2022/09/04 01:26:34;;;;;;;8.77;7.25;;;17.70;99.90;;;;;;5016342;28;20061;-59
2022/09/04 01:29:27;;;;;;;13.98;8.35;;;17.70;99.90;;;;;;5016695;28;20030;-58
2022/09/04 01:32:09;;;;;;;16.60;9.38;;;17.70;99.90;;;;;;5016696;28;20049;-58
2022/09/04 01:35:00;;;;;;;11.85;8.63;;;17.70;99.90;;;;;;5013153;28;20030;-58
2022/09/04 01:38:00;;;;;;;15.30;8.98;;;17.60;99.90;;;;;;5014654;28;20038;-59
2022/09/04 01:40:49;;;;;;;20.27;11.35;;;17.60;99.90;;;;;;5013070;28;20069;-58
2022/09/04 01:43:20;;;;;;;12.93;9.82;;;17.60;99.90;;;;;;5014205;28;20038;-58
2022/09/04 01:46:05;;;;;;;14.45;10.48;;;17.60;99.90;;;;;;5016614;28;20034;-59
2022/09/04 01:48:47;;;;;;;16.00;10.77;;;17.70;99.90;;;;;;5015309;28;20229;-59
2022/09/04 01:51:36;;;;;;;22.83;10.95;;;17.70;99.90;;;;;;5016458;28;20037;-57
2022/09/04 01:54:12;;;;;;;17.52;11.32;;;17.70;99.90;;;;;;5003256;28;20050;-58
2022/09/04 01:56:44;;;;;;;18.48;11.82;;;17.70;99.90;;;;;;5016573;28;20041;-57
2022/09/04 01:59:31;;;;;;;14.95;11.27;;;17.70;99.90;;;;;;5016388;28;20032;-56
2022/09/04 02:02:04;;;;;;;19.10;12.07;;;17.70;99.90;;;;;;5016225;28;20061;-58
2022/09/04 02:05:04;;;;;;;19.45;11.63;;;17.70;99.90;;;;;;5016213;28;20051;-59
2022/09/04 02:07:41;;;;;;;18.95;11.82;;;17.70;99.90;;;;;;5003118;28;20114;-58
2022/09/04 02:10:17;;;;;;;18.83;11.95;;;17.70;99.90;;;;;;5016894;28;20034;-59
2022/09/04 02:13:09;;;;;;;16.90;12.20;;;17.70;99.90;;;;;;5016584;28;20042;-58
2022/09/04 02:15:53;;;;;;;20.27;12.77;;;17.70;99.90;;;;;;5016510;28;20034;-56
2022/09/04 02:18:44;;;;;;;18.45;13.45;;;17.70;99.90;;;;;;5016692;28;20030;-60
2022/09/04 02:21:35;;;;;;;18.60;12.75;;;17.60;99.90;;;;;;5032928;28;20034;-58
2022/09/04 02:24:17;;;;;;;20.25;14.02;;;17.70;99.90;;;;;;5017656;28;20053;-57
2022/09/04 02:27:06;;;;;;;19.48;14.02;;;17.60;99.90;;;;;;5019229;28;20042;-59
2022/09/04 02:30:07;;;;;;;20.58;15.65;;;17.60;99.90;;;;;;5035870;28;20022;-59
2022/09/04 02:32:43;;;;;;;24.55;15.00;;;17.70;99.90;;;;;;5028188;28;20034;-58
2022/09/04 02:35:32;;;;;;;18.80;14.10;;;17.60;99.90;;;;;;5020728;28;20026;-58
2022/09/04 02:38:05;;;;;;;23.30;14.98;;;17.60;99.90;;;;;;5022227;28;20041;-58
2022/09/04 02:40:36;;;;;;;25.38;15.73;;;17.70;99.90;;;;;;5013373;28;20080;-58
2022/09/04 02:43:19;;;;;;;25.20;16.17;;;17.60;99.90;;;;;;5022975;28;20045;-58
2022/09/04 02:46:34;;;;;;;23.05;18.13;;;17.70;99.90;;;;;;5030266;28;20149;-58
2022/09/04 02:49:16;;;;;;;23.58;16.95;;;17.70;99.90;;;;;;5024852;28;20081;-57
2022/09/04 02:51:52;;;;;;;24.85;17.90;;;17.60;99.90;;;;;;5022873;28;20034;-58
2022/09/04 02:54:39;;;;;;;45.00;20.25;;;17.60;99.90;;;;;;5039194;28;20041;-58
2022/09/04 02:57:38;;;;;;;24.00;17.98;;;17.60;99.90;;;;;;5039639;28;20068;-58
2022/09/04 03:00:18;;;;;;;26.88;18.15;;;17.60;99.90;;;;;;5022382;28;20044;-58
2022/09/04 03:02:47;;;;;;;27.45;19.10;;;17.60;99.90;;;;;;5024577;28;20065;-58
2022/09/04 03:05:35;;;;;;;26.63;19.25;;;17.60;99.90;;;;;;5039418;28;20038;-57
2022/09/04 03:08:23;;;;;;;25.20;18.35;;;17.60;99.90;;;;;;5007001;28;20065;-58
2022/09/04 03:11:22;;;;;;;21.52;18.38;;;17.60;99.90;;;;;;5023051;28;20026;-58
2022/09/04 03:13:56;;;;;;;24.75;18.80;;;17.50;99.90;;;;;;5023251;28;20030;-58
2022/09/04 03:16:47;;;;;;;27.10;19.33;;;17.50;99.90;;;;;;4991158;28;20038;-59
2022/09/04 03:19:18;;;;;;;26.30;18.40;;;17.50;99.90;;;;;;5004623;28;20098;-59
2022/09/04 03:22:06;;;;;;;27.50;20.70;;;17.50;99.90;;;;;;5039038;28;20022;-59
2022/09/04 03:25:11;;;;;;;29.10;19.95;;;17.50;99.90;;;;;;5014267;28;20029;-58
2022/09/04 03:27:38;;;;;;;25.73;19.05;;;17.50;99.90;;;;;;5010594;28;20038;-58
2022/09/04 03:30:06;;;;;;;20.67;17.75;;;17.40;99.90;;;;;;5021941;28;20036;-58
2022/09/04 03:32:53;;;;;;;27.85;20.60;;;17.40;99.90;;;;;;5039017;28;20053;-58
2022/09/04 03:35:28;;;;;;;27.83;21.80;;;17.40;99.90;;;;;;5022011;28;20026;-58
2022/09/04 03:38:32;;;;;;;32.58;22.00;;;17.40;99.90;;;;;;5022110;28;20044;-58
2022/09/04 03:41:05;;;;;;;27.63;19.52;;;17.40;99.90;;;;;;5022006;28;20025;-58
2022/09/04 03:43:44;;;;;;;26.20;21.23;;;17.50;99.90;;;;;;5038405;28;20057;-58
2022/09/04 03:46:39;;;;;;;24.35;19.70;;;17.40;99.90;;;;;;5038773;28;20306;-58
2022/09/04 03:49:25;;;;;;;31.55;21.02;;;17.50;99.90;;;;;;5033995;28;20040;-57
2022/09/04 03:52:54;;;;;;;28.00;20.77;;;17.50;99.90;;;;;;5019663;28;20052;-58
2022/09/04 03:56:09;;;;;;;27.92;20.80;;;17.50;99.90;;;;;;4996666;28;20052;-58
2022/09/04 03:58:59;;;;;;;26.85;20.95;;;17.50;99.90;;;;;;5019462;28;20060;-57
2022/09/04 04:01:57;;;;;;;32.90;21.38;;;17.50;99.90;;;;;;5038324;28;20037;-57
2022/09/04 04:04:52;;;;;;;25.55;20.65;;;17.50;99.90;;;;;;5030931;28;20088;-58
2022/09/04 04:07:31;;;;;;;31.02;21.52;;;17.60;99.90;;;;;;5038164;28;20034;-58
2022/09/04 04:10:09;;;;;;;26.80;19.23;;;17.60;99.90;;;;;;5021295;28;20030;-58
2022/09/04 04:12:41;;;;;;;28.10;21.90;;;17.60;99.90;;;;;;5020426;28;20026;-58
2022/09/04 04:15:36;;;;;;;26.27;19.02;;;17.70;99.90;;;;;;5021320;28;20064;-56
2022/09/04 04:18:36;;;;;;;27.35;19.77;;;17.70;99.90;;;;;;5037662;28;20030;-58
2022/09/04 04:21:54;;;;;;;28.33;20.20;;;17.70;99.90;;;;;;5019399;28;20030;-57
2022/09/04 04:24:21;;;;;;;34.78;19.52;;;17.80;99.90;;;;;;5038087;28;20037;-57
2022/09/04 04:26:48;;;;;;;21.05;18.48;;;17.90;99.90;;;;;;5037636;28;20034;-58
2022/09/04 04:29:43;;;;;;;25.15;18.77;;;18.00;99.90;;;;;;5037886;28;20037;-59
2022/09/04 04:32:52;;;;;;;23.02;17.88;;;18.00;99.90;;;;;;5023715;28;20022;-59
2022/09/04 04:35:32;;;;;;;26.30;18.52;;;18.00;99.90;;;;;;4975834;28;20129;-58
2022/09/04 04:38:20;;;;;;;24.55;17.73;;;18.10;99.90;;;;;;5037632;28;20061;-58
2022/09/04 04:41:09;;;;;;;26.77;17.63;;;18.10;99.90;;;;;;5020958;28;20034;-58
2022/09/04 04:44:07;;;;;;;24.30;17.17;;;18.10;99.90;;;;;;5037468;28;20054;-58
2022/09/04 04:46:45;;;;;;;27.25;17.38;;;18.10;99.90;;;;;;5037384;28;20041;-58
2022/09/04 04:49:18;;;;;;;22.77;16.48;;;18.10;99.90;;;;;;5036984;28;20152;-58
2022/09/04 04:52:21;;;;;;;25.38;17.00;;;18.10;99.90;;;;;;5037703;28;20056;-58
2022/09/04 04:55:12;;;;;;;21.30;16.08;;;18.10;99.90;;;;;;5036681;28;20048;-58
2022/09/04 04:58:06;;;;;;;23.15;15.45;;;18.10;99.90;;;;;;5011140;28;20038;-57
2022/09/04 05:00:41;;;;;;;;;;;18.10;99.90;;;;;;5027127;28;20145;-56
2022/09/04 05:03:36;;;;;;;24.77;16.27;;;18.10;99.90;;;;;;5020188;28;19920;-58
2022/09/04 05:06:13;;;;;;;25.25;15.20;;;18.10;99.90;;;;;;5005737;28;20037;-57
2022/09/04 05:08:59;;;;;;;18.58;13.25;;;18.10;99.90;;;;;;5020298;28;20050;-58
2022/09/04 05:11:42;;;;;;;22.58;14.73;;;18.10;99.90;;;;;;5005037;28;20030;-59
2022/09/04 05:14:27;;;;;;;23.13;15.48;;;18.10;99.90;;;;;;5037069;28;20030;-57
2022/09/04 05:16:56;;;;;;;22.48;15.50;;;18.10;99.90;;;;;;5037263;28;20038;-58
2022/09/04 05:19:52;;;;;;;19.98;14.55;;;18.10;99.90;;;;;;5003862;28;20046;-59
2022/09/04 05:22:36;;;;;;;22.17;14.30;;;18.10;99.90;;;;;;4998531;28;20034;-58
2022/09/04 05:25:25;;;;;;;27.35;14.57;;;18.10;99.90;;;;;;5018712;28;20053;-59
2022/09/04 05:28:03;;;;;;;21.92;15.20;;;18.10;99.90;;;;;;5019844;28;20038;-59
2022/09/04 05:30:39;;;;;;;18.33;14.23;;;18.00;99.90;;;;;;5021141;28;20034;-59
2022/09/04 05:33:21;;;;;;;17.70;12.88;;;18.00;99.90;;;;;;5035937;28;20022;-60
2022/09/04 05:35:52;;;;;;;21.75;13.05;;;18.10;99.90;;;;;;5036615;28;20030;-57
2022/09/04 05:38:39;;;;;;;19.00;13.18;;;18.10;99.90;;;;;;5000045;28;20049;-58
2022/09/04 05:41:37;;;;;;;20.70;13.00;;;18.10;99.90;;;;;;5022528;28;20022;-58
2022/09/04 05:44:13;;;;;;;17.30;13.00;;;18.10;99.90;;;;;;5026175;28;20034;-58
2022/09/04 05:46:46;;;;;;;16.98;13.10;;;18.10;99.90;;;;;;5025951;28;20036;-59
2022/09/04 05:49:23;;;;;;;23.52;13.50;;;18.10;99.90;;;;;;5026514;28;20042;-59
2022/09/04 05:52:28;;;;;;;24.27;13.77;;;18.10;99.90;;;;;;5026292;28;20061;-59
2022/09/04 05:55:10;;;;;;;15.88;11.70;;;18.10;99.90;;;;;;5028038;28;20094;-58
2022/09/04 05:57:57;;;;;;;19.02;12.63;;;18.10;99.90;;;;;;5018357;28;20026;-58
2022/09/04 06:00:24;;;;;;;15.32;10.43;;;18.10;99.90;;;;;;5017762;28;20040;-58
2022/09/04 06:03:06;;;;;;;14.63;11.52;;;18.10;99.90;;;;;;5017422;28;20029;-57
2022/09/04 06:05:55;;;;;;;23.20;13.95;;;18.10;99.90;;;;;;5033228;28;20072;-58
2022/09/04 06:08:44;;;;;;;20.25;11.55;;;18.20;99.90;;;;;;5034028;28;20292;-58
2022/09/04 06:11:39;;;;;;;18.65;10.80;;;18.20;99.90;;;;;;5034023;28;20033;-57
2022/09/04 06:14:20;;;;;;;20.35;10.85;;;18.20;99.90;;;;;;5002891;28;20203;-58
2022/09/04 06:16:56;;;;;;;13.32;10.98;;;18.20;99.90;;;;;;5003674;28;20030;-59
2022/09/04 06:19:39;;;;;;;15.27;9.75;;;18.20;99.90;;;;;;5021007;28;20038;-58
2022/09/04 06:22:38;;;;;;;16.25;9.35;;;18.30;99.90;;;;;;5020411;28;20033;-58
2022/09/04 06:25:24;;;;;;;16.00;9.35;;;18.30;99.90;;;;;;4951338;28;20055;-58
2022/09/04 06:28:13;;;;;;;12.57;9.13;;;18.30;99.90;;;;;;5008691;28;20030;-58
2022/09/04 06:31:13;;;;;;;15.30;9.40;;;18.30;99.90;;;;;;5026755;28;20092;-59
2022/09/04 06:34:01;;;;;;;13.23;8.27;;;18.50;99.90;;;;;;5037488;28;20069;-59
2022/09/04 06:36:46;;;;;;;21.77;9.25;;;18.50;99.90;;;;;;5036182;28;20030;-58
2022/09/04 06:39:43;;;;;;;12.93;7.20;;;18.50;99.90;;;;;;5033952;28;20104;-60
2022/09/04 06:42:39;;;;;;;14.02;7.57;;;18.60;99.90;;;;;;5037188;28;20136;-59
2022/09/04 06:45:11;;;;;;;13.57;6.35;;;18.60;99.90;;;;;;5006531;28;20057;-59
2022/09/04 06:47:52;;;;;;;15.47;5.73;;;18.60;99.90;;;;;;5036386;28;20044;-59
2022/09/04 06:50:31;;;;;;;13.35;6.28;;;18.60;99.90;;;;;;5020245;28;20034;-56
2022/09/04 06:53:17;;;;;;;14.07;6.40;;;18.70;99.90;;;;;;5018183;28;20069;-58
2022/09/04 06:55:59;;;;;;;13.90;5.55;;;18.70;99.90;;;;;;4689381;28;10000616;-59
2022/09/04 06:58:45;;;;;;;7.78;4.20;;;18.80;99.90;;;;;;5020110;28;20034;-58
2022/09/04 07:01:18;;;;;;;10.05;4.35;;;18.80;99.90;;;;;;5036753;28;20052;-59
2022/09/04 07:03:49;;;;;;;11.82;4.35;;;18.90;99.90;;;;;;5019367;28;20057;-59
2022/09/04 07:06:46;;;;;;;13.65;3.10;;;19.00;99.90;;;;;;5019502;28;20068;-59
2022/09/04 07:09:20;;;;;;;11.35;4.32;;;19.00;99.90;;;;;;5019743;28;20045;-59
2022/09/04 07:12:13;;;;;;;10.80;3.67;;;19.10;99.90;;;;;;5002937;28;20045;-59
2022/09/04 07:14:50;;;;;;;7.97;3.00;;;19.10;99.90;;;;;;5011552;28;20195;-59
2022/09/04 07:17:39;;;;;;;9.88;3.30;;;19.20;99.90;;;;;;5019523;28;20049;-57
2022/09/04 07:20:22;;;;;;;9.70;3.72;;;19.20;99.90;;;;;;5011718;28;20050;-59
2022/09/04 07:23:22;;;;;;;8.02;3.25;;;19.20;99.90;;;;;;5004509;28;20038;-58
2022/09/04 07:26:18;;;;;;;10.27;2.85;;;19.20;99.90;;;;;;4967885;28;20023;-58
2022/09/04 07:29:10;;;;;;;8.75;3.17;;;19.20;99.90;;;;;;5018359;28;20038;-60
2022/09/04 07:31:51;;;;;;;7.85;2.60;;;19.20;99.90;;;;;;5030676;28;20037;-59
2022/09/04 07:34:27;;;;;;;6.93;3.47;;;19.20;99.90;;;;;;5033015;28;20049;-57
2022/09/04 07:37:23;;;;;;;10.32;2.53;;;19.20;99.90;;;;;;5019173;28;20038;-58
2022/09/04 07:40:08;;;;;;;6.90;2.10;;;19.30;99.90;;;;;;5035135;28;20052;-58
2022/09/04 07:42:54;;;;;;;10.60;2.40;;;19.30;99.90;;;;;;5015705;28;20026;-58
2022/09/04 07:45:50;;;;;;;7.20;2.38;;;19.30;99.90;;;;;;5003580;28;20064;-57
2022/09/04 07:48:27;;;;;;;9.05;2.30;;;19.30;99.90;;;;;;5026093;28;20030;-58
2022/09/04 07:51:03;;;;;;;9.30;2.35;;;19.40;99.90;;;;;;5009710;28;20040;-58
2022/09/04 07:53:45;;;;;;;6.57;2.90;;;19.40;99.90;;;;;;5017901;28;20332;-58
2022/09/04 07:56:15;;;;;;;6.22;2.28;;;19.50;99.90;;;;;;5016519;28;20034;-56
2022/09/04 07:59:26;;;;;;;10.90;2.78;;;19.50;99.90;;;;;;5017210;28;20096;-58
2022/09/04 08:02:22;;;;;;;8.48;2.55;;;19.60;99.90;;;;;;5022353;28;20034;-58
2022/09/04 08:05:04;;;;;;;8.07;2.65;;;19.70;99.90;;;;;;5017053;28;20038;-61
2022/09/04 08:07:37;;;;;;;8.55;2.65;;;19.70;99.90;;;;;;5018646;28;20041;-58
2022/09/04 08:10:25;;;;;;;8.40;1.95;;;19.70;99.90;;;;;;5034963;28;20042;-58
2022/09/04 08:13:12;;;;;;;9.60;3.17;;;19.80;99.90;;;;;;5031731;28;20057;-58
2022/09/04 08:16:03;;;;;;;6.45;1.95;;;19.80;99.90;;;;;;5033177;28;20049;-58
2022/09/04 08:18:54;;;;;;;8.63;2.22;;;19.80;99.90;;;;;;5024376;28;20029;-58
2022/09/04 08:21:27;;;;;;;10.43;2.58;;;19.90;99.90;;;;;;5011085;28;20290;-57
2022/09/04 08:23:54;;;;;;;7.22;2.20;;;20.00;99.90;;;;;;5014723;28;20053;-57
2022/09/04 08:26:28;;;;;;;14.18;3.53;;;20.10;99.90;;;;;;5035205;28;20053;-58
2022/09/04 08:29:04;;;;;;;8.95;2.20;;;20.10;99.90;;;;;;5018157;28;20056;-58
2022/09/04 08:31:35;;;;;;;11.02;1.67;;;20.20;99.90;;;;;;5034774;28;20030;-57
2022/09/04 08:34:27;;;;;;;5.57;1.80;;;20.30;99.90;;;;;;5018097;28;20045;-58
2022/09/04 08:37:13;;;;;;;9.13;1.80;;;20.40;99.90;;;;;;5014635;28;20076;-59
2022/09/04 08:40:11;;;;;;;6.18;2.25;;;20.50;99.90;;;;;;5018977;28;20034;-58
2022/09/04 08:42:53;;;;;;;7.93;1.70;;;20.60;99.90;;;;;;5017307;28;20227;-59
2022/09/04 08:45:42;;;;;;;7.15;2.25;;;20.80;99.90;;;;;;5017685;28;20061;-58
2022/09/04 08:48:47;;;;;;;9.05;1.55;;;20.80;99.90;;;;;;5016902;28;20073;-59
2022/09/04 08:51:43;;;;;;;12.15;2.50;;;20.80;99.90;;;;;;5034055;28;20038;-58
2022/09/04 08:54:49;;;;;;;9.50;2.03;;;20.90;99.90;;;;;;5017376;28;20034;-57
2022/09/04 08:57:39;;;;;;;10.93;3.00;;;20.90;99.90;;;;;;5032881;28;20052;-55
2022/09/04 09:00:16;;;;;;;9.90;1.85;;;20.90;99.90;;;;;;5033568;28;20040;-55
2022/09/04 09:03:24;;;;;;;12.10;2.03;;;20.90;99.90;;;;;;5033709;28;20061;-58
2022/09/04 09:06:28;;;;;;;12.82;2.65;;;21.00;99.90;;;;;;4954284;28;20086;-59
2022/09/04 09:08:55;;;;;;;10.48;1.90;;;21.10;99.90;;;;;;5013083;28;20045;-59
2022/09/04 09:11:45;;;;;;;5.28;1.65;;;21.10;99.90;;;;;;5033201;28;20049;-59
2022/09/04 09:14:37;;;;;;;12.30;2.55;;;21.10;99.90;;;;;;5016105;28;20045;-57
2022/09/04 09:17:11;;;;;;;10.13;2.13;;;21.10;99.90;;;;;;5033065;28;20061;-59
2022/09/04 09:19:38;;;;;;;5.40;1.90;;;21.20;99.90;;;;;;5016134;28;20045;-58
2022/09/04 09:22:20;;;;;;;5.18;1.80;;;21.30;99.90;;;;;;5033885;28;20029;-57
2022/09/04 09:25:08;;;;;;;4.45;1.70;;;21.30;99.90;;;;;;5034097;28;20037;-58
2022/09/04 09:28:00;;;;;;;4.80;1.85;;;21.30;99.90;;;;;;5033635;28;20064;-59
2022/09/04 09:30:58;;;;;;;6.97;1.73;;;21.30;99.90;;;;;;5029914;28;20172;-58
2022/09/04 09:33:59;;;;;;;6.53;2.55;;;21.30;99.90;;;;;;4988329;28;20046;-59
2022/09/04 09:37:05;;;;;;;12.93;2.47;;;21.30;99.90;;;;;;5016754;28;20307;-59
2022/09/04 09:39:47;;;;;;;12.15;2.33;;;21.40;99.90;;;;;;5004961;28;20057;-59
2022/09/04 09:43:01;;;;;;;8.52;2.83;;;21.40;99.90;;;;;;5033228;28;20143;-58
2022/09/04 09:46:06;;;;;;;7.10;1.85;;;21.40;99.90;;;;;;5006107;28;20038;-59
2022/09/04 09:48:48;;;;;;;8.73;2.08;;;21.50;99.90;;;;;;4976629;28;20117;-57
2022/09/04 09:51:21;;;;;;;7.57;2.15;;;21.50;99.90;;;;;;5013879;28;20034;-58
2022/09/04 09:54:16;;;;;;;9.43;1.67;;;21.60;99.90;;;;;;4996753;28;20031;-58
2022/09/04 09:56:55;;;;;;;7.38;2.08;;;21.60;99.90;;;;;;5032545;28;20050;-59
2022/09/04 09:59:42;;;;;;;9.98;2.13;;;21.70;99.90;;;;;;5033534;28;20041;-59
2022/09/04 10:02:21;;;;;;;7.40;1.70;;;21.80;99.90;;;;;;5033497;28;20045;-59
2022/09/04 10:04:58;;;;;;;9.40;1.50;;;21.90;99.90;;;;;;5029635;28;20034;-58
2022/09/04 10:07:31;;;;;;;7.85;2.38;;;21.90;99.90;;;;;;5016836;28;20033;-58
2022/09/04 10:10:06;;;;;;;8.50;2.30;;;22.00;99.90;;;;;;5016772;28;20038;-58
2022/09/04 10:13:08;;;;;;;7.32;1.67;;;22.00;99.90;;;;;;5013172;28;20038;-57
2022/09/04 10:15:45;;;;;;;10.15;2.10;;;22.00;99.90;;;;;;5018916;28;20045;-58
2022/09/04 10:18:41;;;;;;;5.90;1.85;;;22.00;99.90;;;;;;5030487;28;20065;-58
2022/09/04 10:21:26;;;;;;;11.05;2.20;;;21.90;99.90;;;;;;5014330;28;20042;-58
2022/09/04 10:24:12;;;;;;;13.60;2.55;;;21.90;99.90;;;;;;5031139;28;20045;-58
2022/09/04 10:27:00;;;;;;;9.57;2.17;;;22.00;99.90;;;;;;5031761;28;20061;-57
2022/09/04 10:29:46;;;;;;;6.32;1.90;;;22.00;99.90;;;;;;5032820;28;20029;-58
2022/09/04 10:32:31;;;;;;;5.00;1.60;;;22.10;99.90;;;;;;5032957;28;20041;-59
2022/09/04 10:35:31;;;;;;;9.93;2.28;;;22.20;99.90;;;;;;5033352;28;20037;-58
2022/09/04 10:38:35;;;;;;;11.88;2.03;;;22.20;99.90;;;;;;5014871;28;20034;-58
2022/09/04 10:41:20;;;;;;;14.20;2.22;;;22.30;99.90;;;;;;4996918;28;20034;-58
2022/09/04 10:44:16;;;;;;;17.55;3.08;;;22.40;99.90;;;;;;5031029;28;20030;-58
2022/09/04 10:46:42;;;;;;;7.00;1.65;;;22.30;99.90;;;;;;5001295;28;20038;-60
2022/09/04 10:49:29;;;;;;;7.18;1.90;;;22.30;99.90;;;;;;5033161;28;20045;-57
2022/09/04 10:52:24;;;;;;;7.43;1.67;;;22.30;99.90;;;;;;5019088;28;20054;-58
2022/09/04 10:54:53;;;;;;;6.65;1.52;;;22.30;99.90;;;;;;5032646;28;20029;-58
2022/09/04 10:57:55;;;;;;;11.07;1.63;;;22.30;99.90;;;;;;5033285;28;20088;-59
2022/09/04 11:00:31;;;;;;;4.72;1.60;;;22.30;99.90;;;;;;5019871;28;20038;-59
2022/09/04 11:03:27;;;;;;;11.77;2.47;;;22.40;99.90;;;;;;5036735;28;20046;-58
2022/09/04 11:06:31;;;;;;;5.30;1.60;;;22.50;99.90;;;;;;5018672;28;20061;-58
2022/09/04 11:09:04;;;;;;;5.82;1.83;;;22.60;99.90;;;;;;5034534;28;20037;-58
2022/09/04 11:11:39;;;;;;;5.40;1.70;;;22.60;99.90;;;;;;5019284;28;20033;-58
2022/09/04 11:14:37;;;;;;;9.75;1.40;;;22.50;99.90;;;;;;5020151;28;20037;-57
2022/09/04 11:17:30;;;;;;;12.25;2.72;;;22.60;99.90;;;;;;5018828;28;20021;-58
2022/09/04 11:20:35;;;;;;;11.27;1.67;;;22.60;99.90;;;;;;4994348;28;20030;-58
2022/09/04 11:23:08;;;;;;;7.90;1.70;;;22.60;99.90;;;;;;5022586;28;20135;-58
2022/09/04 11:25:44;;;;;;;6.60;1.67;;;22.80;99.90;;;;;;5035585;28;20029;-59
2022/09/04 11:28:33;;;;;;;6.68;1.42;;;22.90;99.90;;;;;;5002767;28;20038;-58
2022/09/04 11:31:27;;;;;;;5.55;1.75;;;22.90;99.90;;;;;;4687292;28;9999810;-58
2022/09/04 11:34:03;;;;;;;7.88;1.55;;;23.00;99.90;;;;;;5036022;28;20186;-58
2022/09/04 11:36:49;;;;;;;7.32;1.25;;;23.10;99.90;;;;;;5018867;28;20044;-58
2022/09/04 11:39:42;;;;;;;11.30;2.58;;;23.10;99.90;;;;;;5035624;28;20053;-58
2022/09/04 11:42:40;;;;;;;5.97;1.80;;;23.20;99.90;;;;;;5019070;28;20037;-59
2022/09/04 11:45:25;;;;;;;7.65;1.77;;;23.20;99.90;;;;;;5018089;28;20364;-59
2022/09/04 11:48:11;;;;;;;7.43;1.95;;;23.40;99.90;;;;;;5017720;28;20041;-57
2022/09/04 11:51:00;;;;;;;6.15;2.30;;;23.50;99.90;;;;;;5035705;28;20030;-57
2022/09/04 11:54:04;;;;;;;9.32;1.85;;;23.70;99.90;;;;;;5031939;28;20065;-57
2022/09/04 11:56:39;;;;;;;;;;;23.80;99.70;;;;;;5025663;28;20049;-58
2022/09/04 11:59:38;;;;;;;10.27;1.90;;;23.60;99.70;;;;;;5025346;28;19914;-59
2022/09/04 12:02:23;;;;;;;9.82;1.90;;;23.60;99.90;;;;;;5028440;28;20045;-59
2022/09/04 12:05:38;;;;;;;7.00;2.15;;;23.70;99.90;;;;;;5018048;28;20046;-58
2022/09/04 12:08:27;;;;;;;11.57;2.45;;;23.90;99.90;;;;;;5034692;28;20050;-59
2022/09/04 12:11:00;;;;;;;8.77;2.03;;;23.90;99.90;;;;;;5031475;28;20042;-57
2022/09/04 12:13:42;;;;;;;11.05;2.47;;;23.90;99.90;;;;;;5002126;28;20029;-59
2022/09/04 12:16:16;;;;;;;17.40;2.80;;;23.90;99.90;;;;;;5032968;28;20042;-59
2022/09/04 12:19:07;;;;;;;11.52;2.08;;;23.90;99.90;;;;;;5034527;28;20061;-57
2022/09/04 12:21:56;;;;;;;9.85;2.20;;;23.80;99.90;;;;;;4995163;28;20090;-59
2022/09/04 12:24:37;;;;;;;10.73;2.75;;;23.90;99.90;;;;;;4995891;28;20043;-59
2022/09/04 12:27:22;;;;;;;8.88;3.00;;;23.90;99.90;;;;;;4992583;28;20054;-59
2022/09/04 12:30:06;;;;;;;10.18;2.30;;;23.90;99.90;;;;;;4995254;28;20039;-61
2022/09/04 12:32:45;;;;;;;;;;;23.80;99.90;;;;;;4995271;28;20050;-57
2022/09/04 12:35:32;;;;;;;7.93;2.30;;;23.80;99.90;;;;;;4995396;28;20045;-57
2022/09/04 12:38:17;;;;;;;8.68;1.65;;;23.90;99.90;;;;;;4995379;28;20210;-58
2022/09/04 12:40:44;;;;;;;10.68;1.58;;;24.00;99.90;;;;;;4995838;28;20027;-59
2022/09/04 12:43:29;;;;;;;8.07;2.15;;;24.00;99.70;;;;;;4994926;28;20062;-58
2022/09/04 12:46:02;;;;;;;13.05;2.88;;;24.00;98.20;;;;;;4995611;28;20097;-57
2022/09/04 12:49:18;;;;;;;9.73;2.78;;;24.00;99.60;;;;;;4992124;28;20236;-58
2022/09/04 12:51:50;;;;;;;10.98;2.35;;;24.10;97.60;;;;;;4990321;28;20042;-58
2022/09/04 12:54:57;;;;;;;8.93;1.95;;;24.20;99.90;;;;;;4994389;28;20039;-59
2022/09/04 12:57:30;;;;;;;10.90;2.15;;;24.20;96.20;;;;;;4991300;28;20050;-58
2022/09/04 13:00:15;;;;;;;10.55;3.10;;;24.20;98.60;;;;;;4996449;28;20031;-59
2022/09/04 13:02:48;;;;;;;10.00;1.98;;;24.20;98.20;;;;;;4997095;28;20063;-58
2022/09/04 13:05:33;;;;;;;10.27;2.35;;;24.20;99.20;;;;;;4996372;28;20054;-58
2022/09/04 13:08:25;;;;;;;15.80;2.85;;;24.20;98.10;;;;;;4997556;28;20043;-59
2022/09/04 13:11:15;;;;;;;7.35;2.10;;;24.20;98.20;;;;;;4996907;28;20031;-58
2022/09/04 13:13:45;;;;;;;10.63;2.40;;;24.30;99.20;;;;;;4993862;28;20027;-61
2022/09/04 13:16:20;;;;;;;9.80;3.53;;;24.30;99.30;;;;;;4983407;28;20038;-59
2022/09/04 13:19:10;;;;;;;9.95;2.78;;;24.40;96.90;;;;;;4993482;28;20035;-59
2022/09/04 13:21:43;;;;;;;8.90;1.92;;;24.40;97.30;;;;;;4995030;28;20039;-59
2022/09/04 13:24:38;;;;;;;10.27;2.83;;;24.50;97.40;;;;;;4994022;28;20031;-59
2022/09/04 13:27:25;;;;;;;11.32;2.38;;;24.40;96.40;;;;;;4986141;28;20102;-58
2022/09/04 13:30:26;;;;;;;5.75;1.92;;;24.30;96.50;;;;;;4994497;28;20062;-59
2022/09/04 13:33:14;;;;;;;9.52;1.85;;;24.20;97.00;;;;;;4953047;28;20043;-58
2022/09/04 13:35:46;;;;;;;7.75;2.45;;;24.20;98.70;;;;;;4994662;28;20035;-58
2022/09/04 13:38:51;;;;;;;5.57;2.15;;;24.30;99.50;;;;;;4994505;28;20094;-57
2022/09/04 13:41:49;;;;;;;11.40;2.95;;;24.40;98.60;;;;;;4995328;28;20035;-56
2022/09/04 13:44:42;;;;;;;9.65;2.60;;;24.30;97.70;;;;;;4993822;28;20373;-57
2022/09/04 13:47:15;;;;;;;10.35;3.25;;;24.20;98.70;;;;;;4994788;28;20066;-59
2022/09/04 13:50:18;;;;;;;12.82;2.85;;;24.20;99.00;;;;;;4988086;28;20128;-59
2022/09/04 13:52:54;;;;;;;7.65;2.53;;;24.10;98.40;;;;;;4953107;28;20081;-59
2022/09/04 13:55:29;;;;;;;9.23;2.00;;;23.90;99.50;;;;;;4994815;28;20031;-58
2022/09/04 13:58:20;;;;;;;12.00;2.50;;;23.90;99.30;;;;;;4994000;28;20031;-58
2022/09/04 14:00:48;;;;;;;13.38;2.78;;;23.90;98.20;;;;;;4975815;28;20031;-58
2022/09/04 14:03:37;;;;;;;9.07;2.25;;;23.90;99.70;;;;;;4995102;28;20070;-59
2022/09/04 14:06:06;;;;;;;6.82;2.60;;;23.90;99.00;;;;;;4994907;28;20099;-59
2022/09/04 14:08:38;;;;;;;9.90;2.90;;;24.00;99.70;;;;;;4978407;28;20035;-58
2022/09/04 14:11:14;;;;;;;8.50;2.75;;;24.00;99.90;;;;;;4993584;28;20082;-59
2022/09/04 14:14:12;;;;;;;7.85;1.92;;;24.20;99.90;;;;;;4981349;28;20099;-58